createdAt,value
2023-10-29T00:02:53.787Z,83.94
2023-10-29T00:05:58.297Z,84.00
2023-10-29T00:09:01.045Z,83.91
2023-10-29T00:12:03.931Z,84.30
2023-10-29T00:15:07.815Z,84.43
2023-10-29T00:18:13.889Z,84.40
2023-10-29T00:21:18.057Z,84.00
2023-10-29T00:24:21.062Z,83.60
2023-10-29T00:27:23.786Z,84.28
2023-10-29T00:30:26.680Z,84.57
2023-10-29T00:33:29.394Z,84.30
2023-10-29T00:36:33.660Z,85.23
2023-10-29T00:39:36.540Z,84.07
2023-10-29T00:42:39.337Z,84.75
2023-10-29T00:45:43.059Z,84.92
2023-10-29T00:48:46.520Z,84.98
2023-10-29T00:51:51.809Z,85.03
2023-10-29T00:54:54.791Z,84.78
2023-10-29T00:57:57.732Z,85.03
2023-10-29T01:01:00.470Z,85.41
2023-10-29T01:04:03.792Z,85.43
2023-10-29T01:07:08.042Z,85.19
2023-10-29T01:10:12.323Z,84.95
2023-10-29T01:13:15.111Z,83.68
2023-10-29T01:16:18.074Z,84.76
2023-10-29T01:19:21.023Z,84.89
2023-10-29T01:22:25.475Z,84.60
2023-10-29T01:25:28.280Z,84.34
2023-10-29T01:28:31.177Z,84.65
2023-10-29T01:31:34.096Z,85.03
2023-10-29T01:34:37.206Z,85.40
2023-10-29T01:37:41.314Z,84.77
2023-10-29T01:40:45.150Z,85.56
2023-10-29T01:43:47.866Z,84.87
2023-10-29T01:46:51.042Z,84.14
2023-10-29T01:49:53.789Z,84.48
2023-10-29T01:52:58.374Z,84.18
2023-10-29T01:56:01.215Z,83.77
2023-10-29T01:59:04.422Z,84.29
2023-10-29T02:02:07.204Z,85.11
2023-10-29T02:05:10.371Z,85.20
2023-10-29T02:08:14.440Z,85.05
2023-10-29T02:11:17.267Z,85.15
2023-10-29T02:14:20.012Z,84.98
2023-10-29T02:17:26.200Z,84.75
2023-10-29T02:20:29.256Z,84.51
2023-10-29T02:23:33.658Z,83.93
2023-10-29T02:26:38.096Z,84.27
2023-10-29T02:29:41.053Z,84.08
2023-10-29T02:32:43.817Z,84.70
2023-10-29T02:35:47.623Z,84.73
2023-10-29T02:38:51.819Z,83.54
2023-10-29T02:41:54.893Z,84.64
2023-10-29T02:44:59.876Z,84.78
2023-10-29T02:48:02.887Z,84.33
2023-10-29T02:51:05.920Z,84.09
2023-10-29T02:54:10.158Z,84.08
2023-10-29T02:57:14.712Z,83.80
2023-10-29T03:00:18.267Z,83.39
2023-10-29T03:03:21.409Z,83.39
2023-10-29T03:06:24.361Z,83.24
2023-10-29T03:09:28.693Z,83.11
2023-10-29T03:12:31.632Z,83.57
2023-10-29T03:15:34.382Z,83.07
2023-10-29T03:18:37.552Z,83.74
2023-10-29T03:21:40.485Z,83.97
2023-10-29T03:24:44.587Z,83.80
2023-10-29T03:27:47.480Z,83.84
2023-10-29T03:30:50.233Z,82.86
2023-10-29T03:33:53.107Z,83.64
2023-10-29T03:36:55.833Z,84.49
2023-10-29T03:40:01.155Z,84.57
2023-10-29T03:43:03.869Z,84.56
2023-10-29T03:46:12.169Z,84.30
2023-10-29T03:49:17.198Z,84.15
2023-10-29T03:52:20.866Z,85.10
2023-10-29T03:55:25.449Z,85.49
2023-10-29T03:58:28.194Z,85.68
2023-10-29T04:01:31.260Z,85.21
2023-10-29T04:04:34.861Z,85.56
2023-10-29T04:07:37.807Z,84.98
2023-10-29T04:10:42.042Z,83.65
2023-10-29T04:13:45.675Z,85.17
2023-10-29T04:16:48.404Z,84.58
2023-10-29T04:19:51.304Z,84.67
2023-10-29T04:22:54.034Z,85.19
2023-10-29T04:25:58.247Z,84.16
2023-10-29T04:29:01.158Z,82.82
2023-10-29T04:32:04.257Z,84.33
2023-10-29T04:35:07.785Z,84.72
2023-10-29T04:38:10.651Z,84.61
2023-10-29T04:41:14.781Z,83.79
2023-10-29T04:44:17.552Z,84.14
2023-10-29T04:47:20.323Z,84.85
2023-10-29T04:50:23.152Z,84.48
2023-10-29T04:53:25.852Z,84.74
2023-10-29T04:56:30.099Z,84.97
2023-10-29T04:59:33.185Z,85.03
2023-10-29T05:02:36.942Z,84.77
2023-10-29T05:05:39.807Z,84.90
2023-10-29T05:08:42.536Z,84.96
2023-10-29T05:11:46.731Z,84.62
2023-10-29T05:14:52.156Z,85.39
2023-10-29T05:17:55.018Z,85.06
2023-10-29T05:20:59.129Z,84.92
2023-10-29T05:24:03.967Z,85.19
2023-10-29T05:27:08.198Z,84.34
2023-10-29T05:30:11.963Z,85.25
2023-10-29T05:33:14.789Z,84.45
2023-10-29T05:36:17.532Z,84.33
2023-10-29T05:39:20.268Z,84.11
2023-10-29T05:42:24.356Z,84.15
2023-10-29T05:45:27.089Z,85.22
2023-10-29T05:48:29.985Z,84.45
2023-10-29T05:51:32.967Z,84.04
2023-10-29T05:54:35.697Z,83.52
2023-10-29T05:57:40.193Z,83.75
2023-10-29T06:00:43.017Z,84.05
2023-10-29T06:03:46.010Z,83.99
2023-10-29T06:06:48.865Z,84.01
2023-10-29T06:09:52.169Z,85.11
2023-10-29T06:12:56.464Z,84.34
2023-10-29T06:15:59.305Z,84.74
2023-10-29T06:19:03.739Z,84.91
2023-10-29T06:22:07.057Z,84.77
2023-10-29T06:25:11.146Z,83.27
2023-10-29T06:28:15.219Z,85.66
2023-10-29T06:31:17.946Z,84.97
2023-10-29T06:34:20.689Z,84.12
2023-10-29T06:37:23.696Z,84.66
2023-10-29T06:40:26.828Z,85.29
2023-10-29T06:43:30.984Z,84.58
2023-10-29T06:46:33.712Z,85.13
2023-10-29T06:49:36.450Z,83.39
2023-10-29T06:52:39.376Z,85.23
2023-10-29T06:55:43.326Z,84.97
2023-10-29T06:58:47.529Z,84.02
2023-10-29T07:01:51.434Z,84.10
2023-10-29T07:04:54.263Z,82.36
2023-10-29T07:07:56.998Z,83.04
2023-10-29T07:10:59.774Z,83.23
2023-10-29T07:14:03.894Z,83.42
2023-10-29T07:17:07.265Z,82.82
2023-10-29T07:20:11.558Z,82.46
2023-10-29T07:23:14.748Z,83.24
2023-10-29T07:26:17.445Z,82.31
2023-10-29T07:29:21.660Z,82.63
2023-10-29T07:32:24.628Z,84.45
2023-10-29T07:35:27.520Z,83.98
2023-10-29T07:38:30.281Z,84.41
2023-10-29T07:41:33.163Z,83.76
2023-10-29T07:44:37.556Z,83.36
2023-10-29T07:47:40.770Z,82.25
2023-10-29T07:50:51.208Z,82.67
2023-10-29T07:53:54.914Z,82.75
2023-10-29T07:56:57.686Z,84.15
2023-10-29T08:00:01.990Z,84.12
2023-10-29T08:03:04.908Z,82.93
2023-10-29T08:06:07.975Z,81.65
2023-10-29T08:09:10.865Z,81.37
2023-10-29T08:12:13.618Z,81.34
2023-10-29T08:15:17.931Z,81.84
2023-10-29T08:18:20.850Z,83.26
2023-10-29T08:21:23.676Z,82.05
2023-10-29T08:24:34.847Z,82.73
2023-10-29T08:27:37.561Z,82.44
2023-10-29T08:30:41.779Z,81.98
2023-10-29T08:33:45.299Z,83.26
2023-10-29T08:36:48.201Z,82.97
2023-10-29T08:39:51.338Z,82.03
2023-10-29T08:42:54.085Z,82.96
2023-10-29T08:45:58.655Z,82.65
2023-10-29T08:49:01.521Z,81.50
2023-10-29T08:52:04.365Z,80.30
2023-10-29T08:55:08.014Z,79.95
2023-10-29T08:58:12.737Z,82.25
2023-10-29T09:01:18.714Z,81.41
2023-10-29T09:04:21.687Z,80.48
2023-10-29T09:07:25.031Z,79.84
2023-10-29T09:10:27.990Z,81.01
2023-10-29T09:13:31.256Z,78.54
2023-10-29T09:16:35.598Z,80.57
2023-10-29T09:19:38.694Z,78.24
2023-10-29T09:22:41.432Z,78.47
2023-10-29T09:25:45.781Z,78.97
2023-10-29T09:28:49.099Z,78.31
2023-10-29T09:31:53.418Z,77.11
2023-10-29T09:34:56.468Z,75.89
2023-10-29T09:37:59.856Z,76.33
2023-10-29T09:41:03.095Z,75.53
2023-10-29T09:44:09.447Z,75.58
2023-10-29T09:47:18.399Z,76.13
2023-10-29T09:50:22.806Z,75.64
2023-10-29T09:53:26.240Z,73.50
2023-10-29T09:56:31.029Z,74.78
2023-10-29T09:59:36.107Z,74.16
2023-10-29T10:02:53.600Z,74.90
2023-10-29T10:05:56.961Z,76.10
2023-10-29T10:09:00.117Z,75.08
2023-10-29T10:12:07.309Z,75.04
2023-10-29T10:15:12.290Z,74.35
2023-10-29T10:18:16.695Z,75.04
2023-10-29T10:21:21.528Z,75.31
2023-10-29T10:24:38.416Z,73.25
2023-10-29T10:27:50.393Z,74.36
2023-10-29T10:30:53.459Z,75.02
2023-10-29T10:34:14.990Z,73.55
2023-10-29T10:37:18.054Z,72.27
2023-10-29T10:40:24.015Z,72.04
2023-10-29T10:43:27.783Z,72.43
2023-10-29T10:46:35.138Z,73.22
2023-10-29T10:49:44.280Z,73.32
2023-10-29T10:52:47.542Z,73.58
2023-10-29T10:56:01.511Z,72.88
2023-10-29T10:59:07.055Z,73.61
2023-10-29T11:02:14.160Z,73.14
2023-10-29T11:05:19.061Z,73.20
2023-10-29T11:08:25.114Z,74.17
2023-10-29T11:11:38.747Z,73.66
2023-10-29T11:15:01.775Z,72.49
2023-10-29T11:18:04.914Z,70.78
2023-10-29T11:21:09.505Z,70.92
2023-10-29T11:24:19.434Z,71.83
2023-10-29T11:27:36.728Z,72.52
2023-10-29T11:30:39.464Z,72.35
2023-10-29T11:33:43.784Z,72.83
2023-10-29T11:36:47.962Z,72.41
2023-10-29T11:39:50.865Z,71.09
2023-10-29T11:42:54.780Z,71.57
2023-10-29T11:45:59.847Z,70.07
2023-10-29T11:49:06.585Z,70.22
2023-10-29T11:52:11.163Z,70.74
2023-10-29T11:55:14.777Z,71.57
2023-10-29T11:58:21.271Z,70.54
2023-10-29T12:01:24.117Z,69.59
2023-10-29T12:04:30.776Z,70.95
2023-10-29T12:07:35.247Z,70.54
2023-10-29T12:10:46.906Z,69.70
2023-10-29T12:13:49.842Z,70.33
2023-10-29T12:16:52.841Z,69.89
2023-10-29T12:19:55.710Z,70.65
2023-10-29T12:23:04.211Z,69.66
2023-10-29T12:26:10.651Z,69.49
2023-10-29T12:29:14.418Z,68.74
2023-10-29T12:32:18.373Z,68.43
2023-10-29T12:35:36.715Z,67.78
2023-10-29T12:38:42.558Z,69.22
2023-10-29T12:41:53.310Z,68.07
2023-10-29T12:44:56.897Z,67.66
2023-10-29T12:48:10.911Z,67.25
2023-10-29T12:51:13.827Z,66.76
2023-10-29T12:54:21.720Z,67.06
2023-10-29T12:57:25.075Z,67.76
2023-10-29T13:00:27.996Z,68.53
2023-10-29T13:03:31.283Z,66.21
2023-10-29T13:06:34.346Z,67.56
2023-10-29T13:09:38.495Z,67.67
2023-10-29T13:12:42.925Z,68.04
2023-10-29T13:15:46.214Z,68.75
2023-10-29T13:18:49.152Z,68.47
2023-10-29T13:21:53.549Z,67.79
2023-10-29T13:24:59.988Z,68.92
2023-10-29T13:28:02.832Z,67.98
2023-10-29T13:31:05.624Z,68.11
2023-10-29T13:34:09.873Z,69.26
2023-10-29T13:37:13.229Z,68.87
2023-10-29T13:40:17.528Z,68.48
2023-10-29T13:43:20.420Z,68.84
2023-10-29T13:46:24.045Z,69.00
2023-10-29T13:49:27.061Z,69.00
2023-10-29T13:52:32.357Z,69.39
2023-10-29T13:55:36.578Z,69.67
2023-10-29T13:58:39.721Z,68.78
2023-10-29T14:01:43.351Z,69.46
2023-10-29T14:04:46.142Z,69.73
2023-10-29T14:07:49.090Z,68.25
2023-10-29T14:10:53.185Z,68.78
2023-10-29T14:13:57.276Z,67.66
2023-10-29T14:17:02.958Z,68.92
2023-10-29T14:20:07.910Z,67.78
2023-10-29T14:23:10.828Z,69.01
2023-10-29T14:26:14.909Z,69.60
2023-10-29T14:29:17.764Z,68.08
2023-10-29T14:32:22.463Z,69.04
2023-10-29T14:35:25.349Z,68.81
2023-10-29T14:38:28.503Z,69.59
2023-10-29T14:41:32.719Z,68.91
2023-10-29T14:44:35.427Z,69.47
2023-10-29T14:47:38.196Z,69.19
2023-10-29T14:50:40.922Z,68.99
2023-10-29T14:53:43.761Z,69.76
2023-10-29T14:56:47.989Z,70.43
2023-10-29T14:59:50.856Z,70.82
2023-10-29T15:02:53.715Z,70.71
2023-10-29T15:05:57.228Z,71.11
2023-10-29T15:09:00.519Z,70.50
2023-10-29T15:12:05.286Z,70.25
2023-10-29T15:15:22.353Z,70.08
2023-10-29T15:18:33.220Z,69.72
2023-10-29T15:21:36.118Z,68.62
2023-10-29T15:24:38.932Z,69.84
2023-10-29T15:27:43.764Z,70.95
2023-10-29T15:30:46.662Z,70.92
2023-10-29T15:33:49.418Z,71.34
2023-10-29T15:36:52.341Z,71.51
2023-10-29T15:39:57.699Z,71.10
2023-10-29T15:43:01.800Z,71.75
2023-10-29T15:46:05.831Z,72.50
2023-10-29T15:49:08.610Z,70.47
2023-10-29T15:52:11.520Z,72.63
2023-10-29T15:55:15.148Z,72.25
2023-10-29T15:58:20.312Z,72.59
2023-10-29T16:01:23.267Z,72.95
2023-10-29T16:04:26.198Z,72.53
2023-10-29T16:07:28.970Z,71.95
2023-10-29T16:10:31.743Z,73.69
2023-10-29T16:13:36.469Z,74.33
2023-10-29T16:16:39.191Z,74.63
2023-10-29T16:19:42.010Z,75.81
2023-10-29T16:22:44.751Z,76.04
2023-10-29T16:25:47.612Z,76.31
2023-10-29T16:28:51.778Z,77.40
2023-10-29T16:31:54.571Z,77.53
2023-10-29T16:34:57.462Z,77.07
2023-10-29T16:38:00.218Z,77.54
2023-10-29T16:41:05.541Z,77.93
2023-10-29T16:44:09.686Z,77.55
2023-10-29T16:47:12.548Z,78.59
2023-10-29T16:50:15.659Z,77.96
2023-10-29T16:53:18.453Z,77.08
2023-10-29T16:56:21.408Z,78.09
2023-10-29T16:59:25.640Z,78.07
2023-10-29T17:02:28.605Z,77.95
2023-10-29T17:05:31.524Z,78.48
2023-10-29T17:08:34.511Z,77.58
2023-10-29T17:11:38.008Z,77.83
2023-10-29T17:14:42.147Z,78.32
2023-10-29T17:17:44.967Z,78.72
2023-10-29T17:20:50.622Z,78.49
2023-10-29T17:23:53.497Z,78.29
2023-10-29T17:26:56.443Z,78.38
2023-10-29T17:30:02.118Z,78.89
2023-10-29T17:33:05.348Z,79.50
2023-10-29T17:36:10.728Z,78.93
2023-10-29T17:42:18.989Z,78.94
2023-10-29T17:45:23.267Z,79.21
2023-10-29T17:51:29.167Z,78.81
2023-10-29T17:54:33.124Z,78.42
2023-10-29T17:57:36.587Z,78.48
2023-10-29T18:00:41.223Z,78.79
2023-10-29T18:03:45.613Z,79.61
2023-10-29T18:06:51.232Z,78.37
2023-10-29T18:09:54.104Z,78.39
2023-10-29T18:12:57.029Z,79.03
2023-10-29T18:16:01.617Z,78.67
2023-10-29T18:19:05.700Z,78.71
2023-10-29T18:22:08.518Z,78.62
2023-10-29T18:25:11.498Z,78.55
2023-10-29T18:28:14.239Z,77.49
2023-10-29T18:31:18.361Z,78.14
2023-10-29T18:34:21.224Z,77.39
2023-10-29T18:37:24.009Z,78.44
2023-10-29T18:40:27.962Z,75.60
2023-10-29T18:43:30.693Z,76.02
2023-10-29T18:46:34.806Z,75.81
2023-10-29T18:49:37.588Z,75.64
2023-10-29T18:52:40.362Z,75.47
2023-10-29T18:55:44.082Z,76.21
2023-10-29T18:58:46.850Z,75.62
2023-10-29T19:01:51.711Z,76.67
2023-10-29T19:04:54.555Z,76.42
2023-10-29T19:07:57.314Z,75.78
2023-10-29T19:11:02.020Z,76.69
2023-10-29T19:14:05.331Z,75.25
2023-10-29T19:17:10.136Z,77.11
2023-10-29T19:20:13.932Z,75.90
2023-10-29T19:23:16.674Z,77.57
2023-10-29T19:26:20.029Z,77.50
2023-10-29T19:29:24.561Z,76.21
2023-10-29T19:32:28.697Z,76.13
2023-10-29T19:35:33.142Z,76.13
2023-10-29T19:38:43.190Z,74.89
2023-10-29T19:41:46.658Z,74.42
2023-10-29T19:44:51.849Z,74.72
2023-10-29T19:47:56.353Z,75.85
2023-10-29T19:51:00.403Z,76.05
2023-10-29T19:54:03.337Z,73.42
2023-10-29T19:57:06.689Z,73.97
2023-10-29T20:00:10.455Z,73.08
2023-10-29T20:03:14.834Z,73.75
2023-10-29T20:06:18.314Z,73.99
2023-10-29T20:09:21.158Z,73.87
2023-10-29T20:12:24.019Z,73.76
2023-10-29T20:15:26.860Z,74.05
2023-10-29T20:18:31.633Z,73.06
2023-10-29T20:21:34.468Z,71.80
2023-10-29T20:24:37.473Z,71.56
2023-10-29T20:27:42.438Z,72.07
2023-10-29T20:30:47.073Z,71.66
2023-10-29T20:33:52.164Z,71.41
2023-10-29T20:36:55.137Z,72.05
2023-10-29T20:39:58.050Z,70.77
2023-10-29T20:43:00.798Z,70.40
2023-10-29T20:46:04.841Z,71.74
2023-10-29T20:49:09.202Z,71.23
2023-10-29T20:52:12.076Z,70.70
2023-10-29T20:55:15.017Z,72.33
2023-10-29T20:58:17.780Z,73.15
2023-10-29T21:01:20.733Z,73.72
2023-10-29T21:04:25.384Z,74.05
2023-10-29T21:07:28.941Z,74.24
2023-10-29T21:10:32.068Z,74.21
2023-10-29T21:13:34.923Z,74.05
2023-10-29T21:16:37.827Z,73.90
2023-10-29T21:19:41.960Z,73.59
2023-10-29T21:22:44.887Z,74.56
2023-10-29T21:25:47.909Z,73.25
2023-10-29T21:28:50.839Z,75.15
2023-10-29T21:31:53.788Z,74.57
2023-10-29T21:34:57.900Z,75.43
2023-10-29T21:38:01.662Z,75.32
2023-10-29T21:41:05.587Z,75.29
2023-10-29T21:44:08.541Z,73.12
2023-10-29T21:47:11.318Z,73.07
2023-10-29T21:50:16.763Z,73.53
2023-10-29T21:53:19.647Z,74.13
2023-10-29T21:56:22.367Z,74.09
2023-10-29T21:59:25.252Z,73.92
2023-10-29T22:02:28.341Z,74.20
2023-10-29T22:05:33.897Z,75.06
2023-10-29T22:08:37.156Z,73.80
2023-10-29T22:11:39.880Z,72.43
2023-10-29T22:14:42.863Z,74.30
2023-10-29T22:17:45.762Z,73.60
2023-10-29T22:20:49.968Z,73.87
2023-10-29T22:23:55.646Z,73.39
2023-10-29T22:26:58.431Z,74.54
2023-10-29T22:30:01.317Z,74.72
2023-10-29T22:33:04.271Z,74.40
2023-10-29T22:36:09.143Z,74.41
2023-10-29T22:39:12.933Z,74.32
2023-10-29T22:42:15.719Z,74.26
2023-10-29T22:45:18.667Z,73.96
2023-10-29T22:48:21.783Z,74.48
2023-10-29T22:51:26.044Z,74.26
2023-10-29T22:54:28.997Z,75.11
2023-10-29T22:57:31.856Z,74.25
2023-10-29T23:00:35.178Z,75.35
2023-10-29T23:03:38.528Z,74.11
2023-10-29T23:06:42.738Z,73.50
2023-10-29T23:09:45.659Z,75.11
2023-10-29T23:12:51.873Z,75.92
2023-10-29T23:15:56.670Z,75.97
2023-10-29T23:18:59.766Z,75.18
2023-10-29T23:22:04.711Z,74.83
2023-10-29T23:25:10.372Z,75.73
2023-10-29T23:28:23.023Z,76.73
2023-10-29T23:31:36.361Z,76.37
2023-10-29T23:34:39.321Z,76.38
2023-10-29T23:37:43.459Z,76.29
2023-10-29T23:40:46.366Z,76.88
2023-10-29T23:43:49.066Z,76.39
2023-10-29T23:46:51.946Z,75.59
2023-10-29T23:49:55.168Z,75.00
2023-10-29T23:52:59.216Z,75.94
2023-10-29T23:56:02.088Z,75.14
2023-10-29T23:59:05.234Z,75.35
